Johns Creek, Georgia
Current Conditions -  °F | °C
As of 9:53 PM on Tuesday 21 Oct 2014 (Local Time) from KPDK Reporting Station
Clear Clear  
Wind Chill: 58°   Ceiling: Unl
Heat Index: 58°   Visibility: 10mi
Dew Point: 45°   Wind: 7mph
Humidity: 62%   Direction: 350°N
Pressure: 30.01"   Gusts: NA
Location:  34.03°N, 84.2°W
Report Text: KPDK 220153Z 35006KT 10SM CLR 14/07 A3001 RMK AO2 SLP158 T01440072
Loading
Personal Weather Stations






























Interactive Weather Map
Tropical Storm Tracking
New forecast layout! Learn more

10-Day Weather Forecast

Advertisements
Track Severe Weather on mobile